sensor_id;sensor_type;location;lat;lon;timestamp;pressure;altitude;pressure_sealevel;temperature;humidity
63556;BME280;49700;48.072;7.800;2023-09-08T00:02:18;99580.09;;;21.46;nan
63556;BME280;49700;48.072;7.800;2023-09-08T00:04:43;99583.94;;;21.43;nan
63556;BME280;49700;48.072;7.800;2023-09-08T00:07:08;99586.94;;;21.40;nan
63556;BME280;49700;48.072;7.800;2023-09-08T00:09:34;99582.88;;;21.36;nan
63556;BME280;49700;48.072;7.800;2023-09-08T00:11:59;99586.09;;;21.31;nan
63556;BME280;49700;48.072;7.800;2023-09-08T00:14:24;99582.75;;;21.29;nan
63556;BME280;49700;48.072;7.800;2023-09-08T00:16:52;99581.22;;;21.27;nan
63556;BME280;49700;48.072;7.800;2023-09-08T00:19:19;99579.72;;;21.24;nan
63556;BME280;49700;48.072;7.800;2023-09-08T00:21:45;99581.72;;;21.22;nan
63556;BME280;49700;48.072;7.800;2023-09-08T00:24:10;99581.91;;;21.20;nan
63556;BME280;49700;48.072;7.800;2023-09-08T00:26:36;99583.75;;;21.20;nan
63556;BME280;49700;48.072;7.800;2023-09-08T00:29:01;99583.56;;;21.21;nan
63556;BME280;49700;48.072;7.800;2023-09-08T00:31:27;99585.91;;;21.16;nan
63556;BME280;49700;48.072;7.800;2023-09-08T00:33:52;99590.41;;;21.08;nan
63556;BME280;49700;48.072;7.800;2023-09-08T00:36:18;99586.91;;;20.99;nan
63556;BME280;49700;48.072;7.800;2023-09-08T00:38:44;99592.38;;;20.89;nan
63556;BME280;49700;48.072;7.800;2023-09-08T00:41:10;99587.84;;;20.82;nan
63556;BME280;49700;48.072;7.800;2023-09-08T00:43:36;99598.19;;;20.76;nan
63556;BME280;49700;48.072;7.800;2023-09-08T00:46:02;99596.72;;;20.74;nan
63556;BME280;49700;48.072;7.800;2023-09-08T00:48:28;99597.88;;;20.71;nan
63556;BME280;49700;48.072;7.800;2023-09-08T00:50:54;99596.19;;;20.70;nan
63556;BME280;49700;48.072;7.800;2023-09-08T00:53:20;99598.84;;;20.70;nan
63556;BME280;49700;48.072;7.800;2023-09-08T00:55:46;99596.84;;;20.72;nan
63556;BME280;49700;48.072;7.800;2023-09-08T00:58:12;99587.69;;;20.75;nan
63556;BME280;49700;48.072;7.800;2023-09-08T01:00:38;99599.19;;;20.75;nan
63556;BME280;49700;48.072;7.800;2023-09-08T01:03:04;99598.19;;;20.76;nan
63556;BME280;49700;48.072;7.800;2023-09-08T01:05:30;99597.53;;;20.74;nan
63556;BME280;49700;48.072;7.800;2023-09-08T01:07:57;99601.53;;;20.70;nan
63556;BME280;49700;48.072;7.800;2023-09-08T01:10:24;99597.66;;;20.65;nan
63556;BME280;49700;48.072;7.800;2023-09-08T01:12:50;99600.00;;;20.60;nan
63556;BME280;49700;48.072;7.800;2023-09-08T01:15:15;99598.66;;;20.55;nan
63556;BME280;49700;48.072;7.800;2023-09-08T01:17:40;99599.09;;;20.51;nan
63556;BME280;49700;48.072;7.800;2023-09-08T01:23:18;99608.44;;;20.47;nan
63556;BME280;49700;48.072;7.800;2023-09-08T01:25:52;99600.91;;;20.42;nan
63556;BME280;49700;48.072;7.800;2023-09-08T01:28:20;99601.88;;;20.41;nan
63556;BME280;49700;48.072;7.800;2023-09-08T01:30:47;99607.22;;;20.41;nan
63556;BME280;49700;48.072;7.800;2023-09-08T01:33:13;99608.22;;;20.40;nan
63556;BME280;49700;48.072;7.800;2023-09-08T01:35:38;99603.91;;;20.39;nan
63556;BME280;49700;48.072;7.800;2023-09-08T01:38:04;99603.22;;;20.37;nan
63556;BME280;49700;48.072;7.800;2023-09-08T01:40:30;99589.88;;;20.37;nan
63556;BME280;49700;48.072;7.800;2023-09-08T01:42:56;99590.91;;;20.36;nan
63556;BME280;49700;48.072;7.800;2023-09-08T01:45:21;99595.22;;;20.37;nan
63556;BME280;49700;48.072;7.800;2023-09-08T01:47:47;99596.88;;;20.38;nan
63556;BME280;49700;48.072;7.800;2023-09-08T01:50:12;99590.56;;;20.39;nan
63556;BME280;49700;48.072;7.800;2023-09-08T01:52:38;99595.03;;;20.39;nan
63556;BME280;49700;48.072;7.800;2023-09-08T01:55:04;99597.88;;;20.37;nan
63556;BME280;49700;48.072;7.800;2023-09-08T01:57:29;99597.22;;;20.35;nan
63556;BME280;49700;48.072;7.800;2023-09-08T01:59:55;99595.19;;;20.29;nan
63556;BME280;49700;48.072;7.800;2023-09-08T02:02:20;99591.00;;;20.26;nan
63556;BME280;49700;48.072;7.800;2023-09-08T02:04:46;99593.81;;;20.25;nan
63556;BME280;49700;48.072;7.800;2023-09-08T02:07:12;99587.66;;;20.24;nan
63556;BME280;49700;48.072;7.800;2023-09-08T02:09:37;99590.31;;;20.24;nan
63556;BME280;49700;48.072;7.800;2023-09-08T02:12:03;99588.81;;;20.22;nan
63556;BME280;49700;48.072;7.800;2023-09-08T02:14:29;99597.81;;;20.21;nan
63556;BME280;49700;48.072;7.800;2023-09-08T02:16:55;99597.13;;;20.19;nan
63556;BME280;49700;48.072;7.800;2023-09-08T02:19:23;99598.97;;;20.18;nan
63556;BME280;49700;48.072;7.800;2023-09-08T02:21:48;99586.78;;;20.16;nan
63556;BME280;49700;48.072;7.800;2023-09-08T02:24:14;99586.78;;;20.16;nan
63556;BME280;49700;48.072;7.800;2023-09-08T02:26:40;99584.28;;;20.14;nan
63556;BME280;49700;48.072;7.800;2023-09-08T02:29:05;99585.59;;;20.10;nan
63556;BME280;49700;48.072;7.800;2023-09-08T02:31:31;99586.75;;;20.07;nan
63556;BME280;49700;48.072;7.800;2023-09-08T02:33:57;99588.06;;;20.03;nan
63556;BME280;49700;48.072;7.800;2023-09-08T02:36:22;99585.72;;;20.00;nan
63556;BME280;49700;48.072;7.800;2023-09-08T02:38:52;99587.72;;;19.98;nan
63556;BME280;49700;48.072;7.800;2023-09-08T02:41:17;99587.88;;;19.97;nan
63556;BME280;49700;48.072;7.800;2023-09-08T02:43:43;99588.88;;;19.96;nan
63556;BME280;49700;48.072;7.800;2023-09-08T02:46:08;99588.00;;;19.95;nan
63556;BME280;49700;48.072;7.800;2023-09-08T02:48:35;99587.19;;;19.95;nan
63556;BME280;49700;48.072;7.800;2023-09-08T02:51:00;99585.66;;;19.92;nan
63556;BME280;49700;48.072;7.800;2023-09-08T02:53:26;99593.97;;;19.89;nan
63556;BME280;49700;48.072;7.800;2023-09-08T02:55:55;99583.66;;;19.86;nan
63556;BME280;49700;48.072;7.800;2023-09-08T02:58:20;99583.13;;;19.82;nan
63556;BME280;49700;48.072;7.800;2023-09-08T03:00:46;99578.94;;;19.80;nan
63556;BME280;49700;48.072;7.800;2023-09-08T03:03:12;99581.63;;;19.80;nan
63556;BME280;49700;48.072;7.800;2023-09-08T03:05:37;99584.44;;;19.78;nan
63556;BME280;49700;48.072;7.800;2023-09-08T03:08:03;99586.25;;;19.78;nan
63556;BME280;49700;48.072;7.800;2023-09-08T03:10:29;99580.75;;;19.79;nan
63556;BME280;49700;48.072;7.800;2023-09-08T03:12:54;99585.13;;;19.80;nan
63556;BME280;49700;48.072;7.800;2023-09-08T03:15:20;99586.78;;;19.81;nan
63556;BME280;49700;48.072;7.800;2023-09-08T03:17:45;99588.47;;;19.82;nan
63556;BME280;49700;48.072;7.800;2023-09-08T03:20:11;99587.78;;;19.80;nan
63556;BME280;49700;48.072;7.800;2023-09-08T03:22:38;99591.91;;;19.75;nan
63556;BME280;49700;48.072;7.800;2023-09-08T03:25:04;99604.03;;;19.69;nan
63556;BME280;49700;48.072;7.800;2023-09-08T03:27:30;99598.13;;;19.65;nan
63556;BME280;49700;48.072;7.800;2023-09-08T03:29:55;99602.13;;;19.61;nan
63556;BME280;49700;48.072;7.800;2023-09-08T03:32:21;99595.72;;;19.54;nan
63556;BME280;49700;48.072;7.800;2023-09-08T03:34:47;99599.84;;;19.49;nan
63556;BME280;49700;48.072;7.800;2023-09-08T03:37:13;99597.34;;;19.47;nan
63556;BME280;49700;48.072;7.800;2023-09-08T03:39:40;99600.03;;;19.47;nan
63556;BME280;49700;48.072;7.800;2023-09-08T03:42:06;99595.84;;;19.44;nan
63556;BME280;49700;48.072;7.800;2023-09-08T03:44:31;99601.44;;;19.41;nan
63556;BME280;49700;48.072;7.800;2023-09-08T03:46:57;99602.63;;;19.39;nan
63556;BME280;49700;48.072;7.800;2023-09-08T03:49:22;99597.56;;;19.36;nan
63556;BME280;49700;48.072;7.800;2023-09-08T03:51:48;99606.06;;;19.31;nan
63556;BME280;49700;48.072;7.800;2023-09-08T03:54:13;99599.34;;;19.27;nan
63556;BME280;49700;48.072;7.800;2023-09-08T03:56:39;99598.00;;;19.23;nan
63556;BME280;49700;48.072;7.800;2023-09-08T03:59:04;99599.13;;;19.20;nan
63556;BME280;49700;48.072;7.800;2023-09-08T04:01:29;99595.63;;;19.20;nan
63556;BME280;49700;48.072;7.800;2023-09-08T04:03:55;99604.47;;;19.20;nan
63556;BME280;49700;48.072;7.800;2023-09-08T04:06:20;99598.13;;;19.21;nan
63556;BME280;49700;48.072;7.800;2023-09-08T04:08:46;99597.81;;;19.24;nan
63556;BME280;49700;48.072;7.800;2023-09-08T04:11:11;99595.84;;;19.27;nan
63556;BME280;49700;48.072;7.800;2023-09-08T04:13:37;99599.84;;;19.31;nan
63556;BME280;49700;48.072;7.800;2023-09-08T04:16:02;99600.56;;;19.33;nan
63556;BME280;49700;48.072;7.800;2023-09-08T04:18:28;99603.75;;;19.36;nan
63556;BME280;49700;48.072;7.800;2023-09-08T04:20:53;99596.59;;;19.37;nan
63556;BME280;49700;48.072;7.800;2023-09-08T04:23:19;99603.59;;;19.38;nan
63556;BME280;49700;48.072;7.800;2023-09-08T04:25:45;99603.44;;;19.39;nan
63556;BME280;49700;48.072;7.800;2023-09-08T04:28:11;99598.13;;;19.39;nan
63556;BME280;49700;48.072;7.800;2023-09-08T04:30:36;99598.13;;;19.39;nan
63556;BME280;49700;48.072;7.800;2023-09-08T04:33:02;99599.97;;;19.39;nan
63556;BME280;49700;48.072;7.800;2023-09-08T04:35:27;99602.44;;;19.40;nan
63556;BME280;49700;48.072;7.800;2023-09-08T04:37:53;99604.28;;;19.40;nan
63556;BME280;49700;48.072;7.800;2023-09-08T04:40:19;99610.75;;;19.37;nan
63556;BME280;49700;48.072;7.800;2023-09-08T04:42:44;99611.06;;;19.34;nan
63556;BME280;49700;48.072;7.800;2023-09-08T04:45:10;99609.69;;;19.30;nan
63556;BME280;49700;48.072;7.800;2023-09-08T04:47:36;99616.16;;;19.28;nan
63556;BME280;49700;48.072;7.800;2023-09-08T04:50:03;99607.50;;;19.26;nan
63556;BME280;49700;48.072;7.800;2023-09-08T04:52:29;99607.50;;;19.26;nan
63556;BME280;49700;48.072;7.800;2023-09-08T04:54:54;99603.84;;;19.27;nan
63556;BME280;49700;48.072;7.800;2023-09-08T04:57:20;99610.00;;;19.27;nan
63556;BME280;49700;48.072;7.800;2023-09-08T04:59:46;99605.50;;;19.28;nan
63556;BME280;49700;48.072;7.800;2023-09-08T05:02:12;99605.50;;;19.28;nan
63556;BME280;49700;48.072;7.800;2023-09-08T05:04:37;99615.19;;;19.29;nan
63556;BME280;49700;48.072;7.800;2023-09-08T05:07:03;99612.22;;;19.32;nan
63556;BME280;49700;48.072;7.800;2023-09-08T05:09:28;99617.53;;;19.32;nan
63556;BME280;49700;48.072;7.800;2023-09-08T05:11:54;99614.88;;;19.32;nan
63556;BME280;49700;48.072;7.800;2023-09-08T05:14:19;99619.50;;;19.30;nan
63556;BME280;49700;48.072;7.800;2023-09-08T05:16:45;99619.50;;;19.30;nan
63556;BME280;49700;48.072;7.800;2023-09-08T05:19:14;99615.84;;;19.31;nan
63556;BME280;49700;48.072;7.800;2023-09-08T05:21:40;99623.56;;;19.34;nan
63556;BME280;49700;48.072;7.800;2023-09-08T05:24:07;99629.53;;;19.36;nan
63556;BME280;49700;48.072;7.800;2023-09-08T05:26:36;99623.06;;;19.38;nan
63556;BME280;49700;48.072;7.800;2023-09-08T05:29:02;99623.63;;;19.42;nan
63556;BME280;49700;48.072;7.800;2023-09-08T05:31:27;99627.81;;;19.44;nan
63556;BME280;49700;48.072;7.800;2023-09-08T05:33:53;99632.00;;;19.47;nan
63556;BME280;49700;48.072;7.800;2023-09-08T05:36:20;99634.72;;;19.55;nan
63556;BME280;49700;48.072;7.800;2023-09-08T05:38:45;99630.59;;;19.61;nan
63556;BME280;49700;48.072;7.800;2023-09-08T05:41:10;99627.34;;;19.67;nan
63556;BME280;49700;48.072;7.800;2023-09-08T05:43:36;99633.88;;;19.73;nan
63556;BME280;49700;48.072;7.800;2023-09-08T05:46:02;99626.25;;;19.78;nan
63556;BME280;49700;48.072;7.800;2023-09-08T05:48:27;99634.59;;;19.83;nan
63556;BME280;49700;48.072;7.800;2023-09-08T05:50:53;99633.28;;;19.87;nan
63556;BME280;49700;48.072;7.800;2023-09-08T05:53:18;99632.69;;;19.93;nan
63556;BME280;49700;48.072;7.800;2023-09-08T05:55:44;99633.13;;;20.15;nan
63556;BME280;49700;48.072;7.800;2023-09-08T05:58:10;99641.72;;;20.61;nan
63556;BME280;49700;48.072;7.800;2023-09-08T06:00:36;99634.50;;;21.12;nan
63556;BME280;49700;48.072;7.800;2023-09-08T06:03:01;99638.53;;;21.49;nan
63556;BME280;49700;48.072;7.800;2023-09-08T06:05:28;99642.56;;;21.61;nan
63556;BME280;49700;48.072;7.800;2023-09-08T06:07:53;99644.41;;;21.60;nan
63556;BME280;49700;48.072;7.800;2023-09-08T06:10:19;99645.25;;;21.53;nan
63556;BME280;49700;48.072;7.800;2023-09-08T06:12:45;99647.22;;;21.42;nan
63556;BME280;49700;48.072;7.800;2023-09-08T06:15:10;99646.56;;;21.40;nan
63556;BME280;49700;48.072;7.800;2023-09-08T06:17:36;99644.22;;;21.70;nan
63556;BME280;49700;48.072;7.800;2023-09-08T06:20:02;99641.31;;;22.21;nan
63556;BME280;49700;48.072;7.800;2023-09-08T06:22:27;99639.75;;;22.74;nan
63556;BME280;49700;48.072;7.800;2023-09-08T06:24:53;99639.28;;;23.02;nan
63556;BME280;49700;48.072;7.800;2023-09-08T06:27:18;99632.75;;;23.04;nan
63556;BME280;49700;48.072;7.800;2023-09-08T06:29:44;99635.94;;;23.00;nan
63556;BME280;49700;48.072;7.800;2023-09-08T06:32:11;99637.16;;;22.89;nan
63556;BME280;49700;48.072;7.800;2023-09-08T06:34:39;99642.09;;;22.77;nan
63556;BME280;49700;48.072;7.800;2023-09-08T06:37:05;99642.66;;;22.64;nan
63556;BME280;49700;48.072;7.800;2023-09-08T06:39:31;99641.34;;;22.52;nan
63556;BME280;49700;48.072;7.800;2023-09-08T06:41:57;99649.25;;;22.45;nan
63556;BME280;49700;48.072;7.800;2023-09-08T06:44:23;99648.94;;;22.40;nan
63556;BME280;49700;48.072;7.800;2023-09-08T06:46:48;99642.44;;;22.35;nan
63556;BME280;49700;48.072;7.800;2023-09-08T06:49:14;99639.09;;;22.33;nan
63556;BME280;49700;48.072;7.800;2023-09-08T06:51:39;99643.97;;;22.29;nan
63556;BME280;49700;48.072;7.800;2023-09-08T06:54:05;99642.31;;;22.28;nan
63556;BME280;49700;48.072;7.800;2023-09-08T06:56:36;99648.47;;;22.28;nan
63556;BME280;49700;48.072;7.800;2023-09-08T06:59:03;99632.78;;;22.25;nan
63556;BME280;49700;48.072;7.800;2023-09-08T07:01:29;99644.97;;;22.28;nan
63556;BME280;49700;48.072;7.800;2023-09-08T07:03:54;99647.78;;;22.35;nan
63556;BME280;49700;48.072;7.800;2023-09-08T07:06:20;99643.41;;;22.42;nan
63556;BME280;49700;48.072;7.800;2023-09-08T07:08:48;99645.88;;;22.51;nan
63556;BME280;49700;48.072;7.800;2023-09-08T07:11:18;99638.00;;;22.58;nan
63556;BME280;49700;48.072;7.800;2023-09-08T07:13:43;99650.16;;;22.69;nan
63556;BME280;49700;48.072;7.800;2023-09-08T07:16:09;99650.59;;;22.81;nan
63556;BME280;49700;48.072;7.800;2023-09-08T07:18:36;99653.22;;;22.89;nan
63556;BME280;49700;48.072;7.800;2023-09-08T07:21:04;99646.00;;;22.97;nan
63556;BME280;49700;48.072;7.800;2023-09-08T07:23:29;99648.16;;;23.02;nan
63556;BME280;49700;48.072;7.800;2023-09-08T07:25:55;99645.63;;;23.09;nan
63556;BME280;49700;48.072;7.800;2023-09-08T07:28:24;99653.25;;;23.20;nan
63556;BME280;49700;48.072;7.800;2023-09-08T07:30:51;99639.22;;;23.33;nan
63556;BME280;49700;48.072;7.800;2023-09-08T07:33:17;99640.50;;;23.83;nan
63556;BME280;49700;48.072;7.800;2023-09-08T07:35:43;99645.06;;;24.71;nan
63556;BME280;49700;48.072;7.800;2023-09-08T07:38:08;99635.25;;;25.65;nan
63556;BME280;49700;48.072;7.800;2023-09-08T07:40:34;99641.09;;;26.59;nan
63556;BME280;49700;48.072;7.800;2023-09-08T07:42:59;99625.75;;;27.34;nan
63556;BME280;49700;48.072;7.800;2023-09-08T07:45:24;99633.06;;;27.87;nan
63556;BME280;49700;48.072;7.800;2023-09-08T07:47:50;99625.94;;;28.19;nan
63556;BME280;49700;48.072;7.800;2023-09-08T07:50:21;99631.00;;;28.54;nan
63556;BME280;49700;48.072;7.800;2023-09-08T07:52:48;99633.22;;;28.77;nan
63556;BME280;49700;48.072;7.800;2023-09-08T07:55:14;99630.31;;;29.17;nan
63556;BME280;49700;48.072;7.800;2023-09-08T07:57:41;99628.63;;;29.73;nan
63556;BME280;49700;48.072;7.800;2023-09-08T08:00:07;99626.19;;;30.33;nan
63556;BME280;49700;48.072;7.800;2023-09-08T08:02:39;99620.50;;;30.90;nan
63556;BME280;49700;48.072;7.800;2023-09-08T08:05:05;99630.75;;;31.30;nan
63556;BME280;49700;48.072;7.800;2023-09-08T08:07:31;99621.97;;;31.82;nan
63556;BME280;49700;48.072;7.800;2023-09-08T08:09:56;99621.94;;;32.29;nan
63556;BME280;49700;48.072;7.800;2023-09-08T08:12:22;99614.59;;;32.41;nan
63556;BME280;49700;48.072;7.800;2023-09-08T08:14:47;99622.53;;;32.54;nan
63556;BME280;49700;48.072;7.800;2023-09-08T08:17:13;99617.47;;;32.75;nan
63556;BME280;49700;48.072;7.800;2023-09-08T08:19:38;99618.91;;;32.94;nan
63556;BME280;49700;48.072;7.800;2023-09-08T08:22:03;99625.09;;;33.18;nan
63556;BME280;49700;48.072;7.800;2023-09-08T08:24:29;99618.00;;;33.34;nan
63556;BME280;49700;48.072;7.800;2023-09-08T08:26:54;99620.31;;;33.42;nan
63556;BME280;49700;48.072;7.800;2023-09-08T08:29:20;99623.22;;;33.53;nan
63556;BME280;49700;48.072;7.800;2023-09-08T08:31:45;99623.84;;;33.55;nan
63556;BME280;49700;48.072;7.800;2023-09-08T08:34:10;99626.16;;;33.51;nan
63556;BME280;49700;48.072;7.800;2023-09-08T08:36:36;99628.47;;;33.54;nan
63556;BME280;49700;48.072;7.800;2023-09-08T08:39:01;99623.78;;;33.38;nan
63556;BME280;49700;48.072;7.800;2023-09-08T08:41:28;99624.38;;;33.40;nan
63556;BME280;49700;48.072;7.800;2023-09-08T08:43:55;99623.31;;;33.41;nan
63556;BME280;49700;48.072;7.800;2023-09-08T08:46:21;99630.41;;;33.42;nan
63556;BME280;49700;48.072;7.800;2023-09-08T08:48:48;99623.47;;;33.34;nan
63556;BME280;49700;48.072;7.800;2023-09-08T08:51:17;99616.50;;;33.26;nan
63556;BME280;49700;48.072;7.800;2023-09-08T08:53:43;99615.09;;;33.07;nan
63556;BME280;49700;48.072;7.800;2023-09-08T08:56:09;99616.78;;;32.96;nan
63556;BME280;49700;48.072;7.800;2023-09-08T08:58:37;99616.84;;;32.84;nan
63556;BME280;49700;48.072;7.800;2023-09-08T09:01:05;99610.72;;;32.77;nan
63556;BME280;49700;48.072;7.800;2023-09-08T09:03:32;99614.81;;;32.51;nan
63556;BME280;49700;48.072;7.800;2023-09-08T09:05:59;99613.19;;;32.38;nan
63556;BME280;49700;48.072;7.800;2023-09-08T09:08:26;99599.69;;;32.03;nan
63556;BME280;49700;48.072;7.800;2023-09-08T09:10:53;99601.06;;;31.59;nan
63556;BME280;49700;48.072;7.800;2023-09-08T09:13:18;99604.91;;;31.27;nan
63556;BME280;49700;48.072;7.800;2023-09-08T09:15:44;99601.06;;;31.05;nan
63556;BME280;49700;48.072;7.800;2023-09-08T09:18:10;99607.63;;;30.97;nan
63556;BME280;49700;48.072;7.800;2023-09-08T09:20:36;99608.69;;;30.84;nan
63556;BME280;49700;48.072;7.800;2023-09-08T09:23:01;99612.72;;;30.75;nan
63556;BME280;49700;48.072;7.800;2023-09-08T09:25:30;99606.63;;;30.80;nan
63556;BME280;49700;48.072;7.800;2023-09-08T09:27:58;99612.22;;;30.85;nan
63556;BME280;49700;48.072;7.800;2023-09-08T09:30:25;99610.56;;;30.84;nan
63556;BME280;49700;48.072;7.800;2023-09-08T09:33:01;99610.63;;;30.77;nan
63556;BME280;49700;48.072;7.800;2023-09-08T09:38:06;99609.03;;;30.88;nan
63556;BME280;49700;48.072;7.800;2023-09-08T09:40:31;99605.91;;;31.03;nan
63556;BME280;49700;48.072;7.800;2023-09-08T09:42:58;99607.56;;;31.04;nan
63556;BME280;49700;48.072;7.800;2023-09-08T09:45:27;99604.28;;;31.14;nan
63556;BME280;49700;48.072;7.800;2023-09-08T09:47:54;99606.66;;;31.22;nan
63556;BME280;49700;48.072;7.800;2023-09-08T09:50:41;99602.06;;;31.22;nan
63556;BME280;49700;48.072;7.800;2023-09-08T09:55:33;99597.72;;;31.33;nan
63556;BME280;49700;48.072;7.800;2023-09-08T09:58:01;99595.28;;;31.43;nan
63556;BME280;49700;48.072;7.800;2023-09-08T10:00:30;99601.16;;;31.40;nan
63556;BME280;49700;48.072;7.800;2023-09-08T10:02:57;99588.25;;;31.24;nan
63556;BME280;49700;48.072;7.800;2023-09-08T10:05:26;99596.72;;;31.16;nan
63556;BME280;49700;48.072;7.800;2023-09-08T10:07:52;99587.53;;;31.17;nan
63556;BME280;49700;48.072;7.800;2023-09-08T10:10:19;99584.72;;;31.23;nan
63556;BME280;49700;48.072;7.800;2023-09-08T10:12:51;99584.97;;;31.22;nan
63556;BME280;49700;48.072;7.800;2023-09-08T10:15:20;99588.16;;;31.30;nan
63556;BME280;49700;48.072;7.800;2023-09-08T10:17:47;99579.22;;;31.42;nan
63556;BME280;49700;48.072;7.800;2023-09-08T10:20:18;99579.00;;;31.43;nan
63556;BME280;49700;48.072;7.800;2023-09-08T10:22:52;99577.66;;;31.34;nan
63556;BME280;49700;48.072;7.800;2023-09-08T10:25:20;99574.72;;;31.36;nan
63556;BME280;49700;48.072;7.800;2023-09-08T10:27:50;99570.97;;;31.37;nan
63556;BME280;49700;48.072;7.800;2023-09-08T10:30:16;99572.84;;;31.48;nan
63556;BME280;49700;48.072;7.800;2023-09-08T10:32:42;99568.13;;;31.55;nan
63556;BME280;49700;48.072;7.800;2023-09-08T10:35:09;99571.91;;;31.54;nan
63556;BME280;49700;48.072;7.800;2023-09-08T10:37:35;99573.69;;;31.60;nan
63556;BME280;49700;48.072;7.800;2023-09-08T10:42:47;99562.09;;;31.88;nan
63556;BME280;49700;48.072;7.800;2023-09-08T10:45:19;99565.06;;;31.99;nan
63556;BME280;49700;48.072;7.800;2023-09-08T10:50:20;99562.94;;;32.01;nan
63556;BME280;49700;48.072;7.800;2023-09-08T10:53:10;99557.00;;;32.15;nan
63556;BME280;49700;48.072;7.800;2023-09-08T10:55:40;99555.78;;;32.23;nan
63556;BME280;49700;48.072;7.800;2023-09-08T10:58:09;99550.22;;;32.30;nan
63556;BME280;49700;48.072;7.800;2023-09-08T11:00:46;99555.91;;;32.28;nan
63556;BME280;49700;48.072;7.800;2023-09-08T11:03:12;99544.31;;;32.21;nan
63556;BME280;49700;48.072;7.800;2023-09-08T11:05:39;99547.41;;;32.13;nan
63556;BME280;49700;48.072;7.800;2023-09-08T11:08:04;99547.56;;;32.06;nan
63556;BME280;49700;48.072;7.800;2023-09-08T11:10:30;99541.91;;;31.96;nan
63556;BME280;49700;48.072;7.800;2023-09-08T11:12:57;99548.50;;;31.88;nan
63556;BME280;49700;48.072;7.800;2023-09-08T11:15:25;99549.59;;;31.87;nan
63556;BME280;49700;48.072;7.800;2023-09-08T11:17:50;99546.75;;;31.82;nan
63556;BME280;49700;48.072;7.800;2023-09-08T11:20:26;99542.28;;;31.76;nan
63556;BME280;49700;48.072;7.800;2023-09-08T11:22:52;99544.97;;;31.64;nan
63556;BME280;49700;48.072;7.800;2023-09-08T11:25:20;99538.50;;;31.65;nan
63556;BME280;49700;48.072;7.800;2023-09-08T11:27:45;99536.72;;;31.71;nan
63556;BME280;49700;48.072;7.800;2023-09-08T11:30:12;99538.97;;;31.74;nan
63556;BME280;49700;48.072;7.800;2023-09-08T11:32:39;99538.63;;;31.70;nan
63556;BME280;49700;48.072;7.800;2023-09-08T11:35:09;99547.81;;;31.69;nan
63556;BME280;49700;48.072;7.800;2023-09-08T11:37:41;99537.66;;;31.77;nan
63556;BME280;49700;48.072;7.800;2023-09-08T11:40:08;99535.88;;;31.82;nan
63556;BME280;49700;48.072;7.800;2023-09-08T11:42:41;99534.81;;;31.83;nan
63556;BME280;49700;48.072;7.800;2023-09-08T11:45:13;99537.63;;;31.88;nan
63556;BME280;49700;48.072;7.800;2023-09-08T11:47:40;99536.00;;;31.87;nan
63556;BME280;49700;48.072;7.800;2023-09-08T11:50:07;99539.31;;;31.89;nan
63556;BME280;49700;48.072;7.800;2023-09-08T11:52:33;99536.34;;;31.91;nan
63556;BME280;49700;48.072;7.800;2023-09-08T11:54:58;99531.72;;;31.91;nan
63556;BME280;49700;48.072;7.800;2023-09-08T11:57:24;99532.34;;;31.93;nan
63556;BME280;49700;48.072;7.800;2023-09-08T11:59:50;99538.72;;;31.87;nan
63556;BME280;49700;48.072;7.800;2023-09-08T12:02:15;99534.69;;;31.78;nan
63556;BME280;49700;48.072;7.800;2023-09-08T12:04:40;99533.41;;;31.81;nan
63556;BME280;49700;48.072;7.800;2023-09-08T12:07:12;99523.94;;;31.83;nan
63556;BME280;49700;48.072;7.800;2023-09-08T12:09:40;99525.63;;;31.84;nan
63556;BME280;49700;48.072;7.800;2023-09-08T12:12:11;99528.66;;;31.88;nan
63556;BME280;49700;48.072;7.800;2023-09-08T12:14:40;99518.03;;;31.86;nan
63556;BME280;49700;48.072;7.800;2023-09-08T12:17:07;99517.81;;;31.88;nan
63556;BME280;49700;48.072;7.800;2023-09-08T12:19:33;99510.00;;;31.91;nan
63556;BME280;49700;48.072;7.800;2023-09-08T12:22:03;99511.81;;;31.98;nan
63556;BME280;49700;48.072;7.800;2023-09-08T12:24:47;99509.16;;;32.03;nan
63556;BME280;49700;48.072;7.800;2023-09-08T12:27:17;99515.78;;;32.07;nan
63556;BME280;49700;48.072;7.800;2023-09-08T12:29:53;99504.75;;;32.13;nan
63556;BME280;49700;48.072;7.800;2023-09-08T12:32:20;99509.25;;;32.20;nan
63556;BME280;49700;48.072;7.800;2023-09-08T12:34:45;99507.59;;;32.18;nan
63556;BME280;49700;48.072;7.800;2023-09-08T12:37:11;99503.81;;;32.20;nan
63556;BME280;49700;48.072;7.800;2023-09-08T12:39:38;99512.31;;;32.23;nan
63556;BME280;49700;48.072;7.800;2023-09-08T12:42:04;99514.19;;;32.23;nan
63556;BME280;49700;48.072;7.800;2023-09-08T12:44:30;99507.47;;;32.25;nan
63556;BME280;49700;48.072;7.800;2023-09-08T12:46:55;99499.41;;;32.30;nan
63556;BME280;49700;48.072;7.800;2023-09-08T12:49:20;99500.56;;;32.34;nan
63556;BME280;49700;48.072;7.800;2023-09-08T12:51:46;99497.25;;;32.32;nan
63556;BME280;49700;48.072;7.800;2023-09-08T12:54:11;99490.84;;;32.38;nan
63556;BME280;49700;48.072;7.800;2023-09-08T12:56:37;99493.09;;;32.42;nan
63556;BME280;49700;48.072;7.800;2023-09-08T12:59:02;99487.78;;;32.47;nan
63556;BME280;49700;48.072;7.800;2023-09-08T13:01:28;99484.56;;;32.50;nan
63556;BME280;49700;48.072;7.800;2023-09-08T13:03:54;99483.47;;;32.51;nan
63556;BME280;49700;48.072;7.800;2023-09-08T13:06:19;99484.31;;;32.51;nan
63556;BME280;49700;48.072;7.800;2023-09-08T13:08:44;99479.63;;;32.47;nan
63556;BME280;49700;48.072;7.800;2023-09-08T13:11:10;99481.03;;;32.49;nan
63556;BME280;49700;48.072;7.800;2023-09-08T13:13:35;99475.09;;;32.52;nan
63556;BME280;49700;48.072;7.800;2023-09-08T13:16:01;99475.69;;;32.54;nan
63556;BME280;49700;48.072;7.800;2023-09-08T13:18:26;99472.22;;;32.59;nan
63556;BME280;49700;48.072;7.800;2023-09-08T13:20:51;99469.00;;;32.62;nan
63556;BME280;49700;48.072;7.800;2023-09-08T13:23:17;99472.78;;;32.61;nan
63556;BME280;49700;48.072;7.800;2023-09-08T13:25:42;99469.50;;;32.59;nan
63556;BME280;49700;48.072;7.800;2023-09-08T13:28:09;99471.28;;;32.53;nan
63556;BME280;49700;48.072;7.800;2023-09-08T13:30:35;99470.97;;;32.50;nan
63556;BME280;49700;48.072;7.800;2023-09-08T13:33:01;99468.47;;;32.48;nan